createdAt,value
2023-03-31T00:00:53.631Z,100924.84
2023-03-31T00:03:25.033Z,100917.72
2023-03-31T00:05:59.277Z,100916.84
2023-03-31T00:08:30.312Z,100927.81
2023-03-31T00:11:00.777Z,100924.22
2023-03-31T00:13:29.800Z,100925.94
2023-03-31T00:16:04.234Z,100903.53
2023-03-31T00:18:31.862Z,100890.31
2023-03-31T00:21:24.658Z,100896.34
2023-03-31T00:23:58.348Z,100892.56
2023-03-31T00:26:26.468Z,100879.72
2023-03-31T00:28:54.448Z,100886.94
2023-03-31T00:31:22.838Z,100889.72
2023-03-31T00:33:50.956Z,100890.34
2023-03-31T00:36:21.594Z,100879.03
2023-03-31T00:38:49.390Z,100866.66
2023-03-31T00:41:17.367Z,100873.50
2023-03-31T00:44:06.692Z,100870.56
2023-03-31T00:46:54.607Z,100873.88
2023-03-31T00:49:28.048Z,100871.44
2023-03-31T00:52:00.306Z,100861.06
2023-03-31T00:54:29.165Z,100868.81
2023-03-31T00:56:58.721Z,100861.72
2023-03-31T00:59:30.499Z,100871.69
2023-03-31T01:02:02.698Z,100855.63
2023-03-31T01:04:38.872Z,100848.91
2023-03-31T01:07:31.012Z,100856.13
2023-03-31T01:10:01.605Z,100857.00
2023-03-31T01:12:29.288Z,100847.09
2023-03-31T01:14:56.917Z,100830.16
2023-03-31T01:17:25.089Z,100823.09
2023-03-31T01:20:14.701Z,100826.59
2023-03-31T01:22:51.562Z,100831.00
2023-03-31T01:25:24.661Z,100812.25
2023-03-31T01:28:01.704Z,100820.16
2023-03-31T01:30:50.368Z,100814.00
2023-03-31T01:33:32.960Z,100818.38
2023-03-31T01:36:29.226Z,100817.31
2023-03-31T01:39:17.671Z,100822.84
2023-03-31T01:42:12.562Z,100820.63
2023-03-31T01:44:53.411Z,100828.25
2023-03-31T01:47:30.100Z,100818.06
2023-03-31T01:50:08.008Z,100817.41
2023-03-31T01:53:04.879Z,100821.22
2023-03-31T01:55:46.714Z,100821.91
2023-03-31T01:58:26.797Z,100807.00
2023-03-31T02:01:06.327Z,100802.53
2023-03-31T02:03:49.677Z,100788.88
2023-03-31T02:06:22.046Z,100788.53
2023-03-31T02:08:58.605Z,100773.78
2023-03-31T02:11:28.515Z,100783.50
2023-03-31T02:13:57.871Z,100776.25
2023-03-31T02:16:27.900Z,100792.59
2023-03-31T02:19:02.468Z,100777.38
2023-03-31T02:21:34.249Z,100774.84
2023-03-31T02:24:06.918Z,100771.63
2023-03-31T02:26:40.527Z,100778.50
2023-03-31T02:29:08.201Z,100779.34
2023-03-31T02:31:48.342Z,100778.59
2023-03-31T02:34:16.193Z,100785.59
2023-03-31T02:36:45.717Z,100773.16
2023-03-31T02:39:19.968Z,100776.94
2023-03-31T02:41:47.370Z,100783.97
2023-03-31T02:44:17.198Z,100763.38
2023-03-31T02:46:46.962Z,100768.75
2023-03-31T02:49:16.279Z,100774.97
2023-03-31T02:52:11.279Z,100771.88
2023-03-31T02:55:09.863Z,100781.41
2023-03-31T02:57:43.234Z,100769.94
2023-03-31T03:00:48.323Z,100774.63
2023-03-31T03:03:26.651Z,100775.56
2023-03-31T03:06:13.664Z,100791.72
2023-03-31T03:09:50.328Z,100758.94
2023-03-31T03:12:25.321Z,100759.56
2023-03-31T03:15:17.320Z,100763.72
2023-03-31T03:17:46.807Z,100755.16
2023-03-31T03:20:16.340Z,100757.78
2023-03-31T03:22:43.796Z,100742.88
2023-03-31T03:25:15.018Z,100744.47
2023-03-31T03:27:42.932Z,100750.41
2023-03-31T03:30:13.027Z,100719.31
2023-03-31T03:32:41.802Z,100721.91
2023-03-31T03:35:09.428Z,100735.41
2023-03-31T03:37:37.092Z,100745.00
2023-03-31T03:40:08.302Z,100732.72
2023-03-31T03:42:36.062Z,100717.59
2023-03-31T03:45:03.704Z,100723.75
2023-03-31T03:47:31.229Z,100720.09
2023-03-31T03:49:58.698Z,100723.44
2023-03-31T03:52:26.226Z,100718.22
2023-03-31T03:54:53.568Z,100711.66
2023-03-31T03:57:21.111Z,100715.00
2023-03-31T03:59:48.504Z,100702.50
2023-03-31T04:02:16.051Z,100701.81
2023-03-31T04:04:43.515Z,100715.19
2023-03-31T04:07:10.952Z,100723.72
2023-03-31T04:09:38.349Z,100705.91
2023-03-31T04:12:05.886Z,100714.25
2023-03-31T04:14:33.468Z,100711.22
2023-03-31T04:17:02.721Z,100713.28
2023-03-31T04:19:30.116Z,100713.13
2023-03-31T04:22:03.108Z,100723.88
2023-03-31T04:24:33.062Z,100717.63
2023-03-31T04:27:03.085Z,100715.78
2023-03-31T04:29:33.762Z,100705.94
2023-03-31T04:32:01.603Z,100707.56
2023-03-31T04:34:35.592Z,100714.84
2023-03-31T04:37:04.197Z,100703.28
2023-03-31T04:39:31.825Z,100707.66
2023-03-31T04:42:00.659Z,100691.72
2023-03-31T04:44:28.125Z,100682.47
2023-03-31T04:46:56.111Z,100681.34
2023-03-31T04:49:23.481Z,100690.25
2023-03-31T04:51:51.127Z,100679.53
2023-03-31T04:54:18.568Z,100694.22
2023-03-31T04:56:46.569Z,100706.53
2023-03-31T04:59:14.016Z,100696.09
2023-03-31T05:01:45.135Z,100691.75
2023-03-31T05:04:12.818Z,100721.31
2023-03-31T05:06:40.348Z,100707.84
2023-03-31T05:09:09.674Z,100695.75
2023-03-31T05:11:38.403Z,100699.13
2023-03-31T05:14:06.131Z,100687.44
2023-03-31T05:16:34.118Z,100686.56
2023-03-31T05:19:01.556Z,100685.22
2023-03-31T05:21:30.672Z,100682.66
2023-03-31T05:23:58.220Z,100668.31
2023-03-31T05:26:26.136Z,100687.59
2023-03-31T05:28:54.166Z,100664.47
2023-03-31T05:31:21.632Z,100674.88
2023-03-31T05:33:49.072Z,100666.88
2023-03-31T05:36:17.959Z,100666.47
2023-03-31T05:38:45.876Z,100646.09
2023-03-31T05:41:13.226Z,100676.88
2023-03-31T05:43:40.711Z,100662.66
2023-03-31T05:46:08.578Z,100661.97
2023-03-31T05:48:38.107Z,100686.72
2023-03-31T05:51:06.138Z,100689.34
2023-03-31T05:53:34.209Z,100664.59
2023-03-31T05:56:05.726Z,100680.59
2023-03-31T05:58:37.319Z,100662.69
2023-03-31T06:01:10.842Z,100662.50
2023-03-31T06:03:41.496Z,100661.31
2023-03-31T06:06:10.485Z,100662.94
2023-03-31T06:08:38.054Z,100656.09
2023-03-31T06:11:10.998Z,100650.00
2023-03-31T06:13:39.384Z,100657.66
2023-03-31T06:16:08.047Z,100656.78
2023-03-31T06:18:36.465Z,100645.91
2023-03-31T06:21:04.852Z,100650.19
2023-03-31T06:23:33.246Z,100647.34
2023-03-31T06:26:03.385Z,100643.75
2023-03-31T06:28:31.237Z,100642.19
2023-03-31T06:31:08.643Z,100633.38
2023-03-31T06:33:36.392Z,100624.56
2023-03-31T06:36:05.688Z,100620.84
2023-03-31T06:38:35.090Z,100616.31
2023-03-31T06:41:02.956Z,100596.09
2023-03-31T06:43:30.687Z,100611.69
2023-03-31T06:45:58.480Z,100606.19
2023-03-31T06:48:26.016Z,100607.72
2023-03-31T06:50:54.908Z,100614.63
2023-03-31T06:53:22.367Z,100604.81
2023-03-31T06:55:49.731Z,100599.50
2023-03-31T06:58:16.998Z,100589.50
2023-03-31T07:00:46.128Z,100608.91
2023-03-31T07:03:14.773Z,100611.72
2023-03-31T07:05:42.202Z,100603.25
2023-03-31T07:08:09.473Z,100604.94
2023-03-31T07:10:36.754Z,100589.94
2023-03-31T07:13:05.605Z,100582.50
2023-03-31T07:15:33.264Z,100576.16
2023-03-31T07:18:03.382Z,100586.19
2023-03-31T07:20:31.041Z,100582.44
2023-03-31T07:22:58.375Z,100591.47
2023-03-31T07:25:25.924Z,100576.22
2023-03-31T07:27:53.599Z,100586.41
2023-03-31T07:30:21.902Z,100578.22
2023-03-31T07:32:51.239Z,100588.41
2023-03-31T07:35:19.667Z,100574.50
2023-03-31T07:37:49.072Z,100574.38
2023-03-31T07:40:20.860Z,100572.50
2023-03-31T07:42:49.529Z,100577.91
2023-03-31T07:45:17.402Z,100574.50
2023-03-31T07:47:46.533Z,100576.31
2023-03-31T07:50:16.549Z,100576.56
2023-03-31T07:52:46.912Z,100573.50
2023-03-31T07:55:15.775Z,100569.34
2023-03-31T07:57:43.639Z,100539.28
2023-03-31T08:00:12.627Z,100550.59
2023-03-31T08:02:43.117Z,100551.16
2023-03-31T08:05:15.877Z,100551.00
2023-03-31T08:07:46.053Z,100568.75
2023-03-31T08:10:18.944Z,100567.16
2023-03-31T08:12:46.666Z,100560.91
2023-03-31T08:15:14.285Z,100564.38
2023-03-31T08:17:41.942Z,100566.78
2023-03-31T08:20:12.790Z,100565.78
2023-03-31T08:22:40.959Z,100567.44
2023-03-31T08:25:09.486Z,100551.31
2023-03-31T08:27:40.210Z,100545.22
2023-03-31T08:30:10.226Z,100551.53
2023-03-31T08:32:37.698Z,100543.63
2023-03-31T08:35:05.708Z,100549.84
2023-03-31T08:37:33.324Z,100545.50
2023-03-31T08:40:00.858Z,100532.06
2023-03-31T08:42:44.901Z,100538.00
2023-03-31T08:45:47.764Z,100531.19
2023-03-31T08:48:22.165Z,100519.56
2023-03-31T08:50:56.527Z,100525.25
2023-03-31T08:53:31.090Z,100512.56
2023-03-31T08:55:59.313Z,100509.00
2023-03-31T08:58:39.973Z,100522.03
2023-03-31T09:01:17.178Z,100532.19
2023-03-31T09:03:59.954Z,100539.66
2023-03-31T09:06:33.933Z,100535.59
2023-03-31T09:09:03.670Z,100538.19
2023-03-31T09:11:44.410Z,100550.69
2023-03-31T09:14:37.040Z,100533.44
2023-03-31T09:17:19.087Z,100558.19
2023-03-31T09:19:52.670Z,100541.13
2023-03-31T09:22:29.232Z,100506.19
2023-03-31T09:25:12.300Z,100518.22
2023-03-31T09:27:43.740Z,100497.06
2023-03-31T09:30:21.072Z,100493.34
2023-03-31T09:32:52.625Z,100493.78
2023-03-31T09:35:23.637Z,100493.34
2023-03-31T09:37:52.259Z,100492.16
2023-03-31T09:40:22.817Z,100478.81
2023-03-31T09:43:07.090Z,100479.13
2023-03-31T09:45:35.856Z,100470.13
2023-03-31T09:48:16.696Z,100487.91
2023-03-31T09:50:51.905Z,100475.16
2023-03-31T09:53:28.047Z,100472.47
2023-03-31T09:56:01.920Z,100471.28
2023-03-31T09:58:29.421Z,100448.91
2023-03-31T10:01:09.798Z,100442.81
2023-03-31T10:04:08.236Z,100446.22
2023-03-31T10:06:42.550Z,100437.06
2023-03-31T10:09:11.506Z,100428.09
2023-03-31T10:11:40.134Z,100422.19
2023-03-31T10:14:14.587Z,100410.38
2023-03-31T10:16:50.486Z,100417.03
2023-03-31T10:19:31.636Z,100414.41
2023-03-31T10:22:26.431Z,100400.13
2023-03-31T10:24:54.875Z,100412.91
2023-03-31T10:27:30.961Z,100398.78
2023-03-31T10:30:01.843Z,100394.56
2023-03-31T10:32:35.386Z,100389.84
2023-03-31T10:35:23.005Z,100390.41
2023-03-31T10:37:54.783Z,100405.75
2023-03-31T10:40:25.718Z,100409.94
2023-03-31T10:43:03.097Z,100402.72
2023-03-31T10:45:38.355Z,100395.38
2023-03-31T10:48:24.606Z,100408.13
2023-03-31T10:50:52.369Z,100409.34
2023-03-31T10:53:20.602Z,100380.00
2023-03-31T10:56:03.118Z,100388.34
2023-03-31T10:59:06.638Z,100380.25
2023-03-31T11:01:45.656Z,100361.41
2023-03-31T11:04:19.028Z,100356.22
2023-03-31T11:07:04.624Z,100335.94
2023-03-31T11:09:42.517Z,100335.34
2023-03-31T11:12:31.672Z,100319.38
2023-03-31T11:15:14.456Z,100325.25
2023-03-31T11:18:09.364Z,100322.13
2023-03-31T11:20:49.804Z,100315.00
2023-03-31T11:23:53.641Z,100305.34
2023-03-31T11:26:38.277Z,100290.09
2023-03-31T11:29:16.629Z,100277.16
2023-03-31T11:31:55.854Z,100276.66
2023-03-31T11:34:29.733Z,100262.97
2023-03-31T11:37:15.470Z,100255.63
2023-03-31T11:40:02.990Z,100245.16
2023-03-31T11:42:39.247Z,100239.03
2023-03-31T11:45:28.532Z,100232.94
2023-03-31T11:48:05.488Z,100226.78
2023-03-31T11:50:39.891Z,100216.63
2023-03-31T11:53:18.976Z,100211.47
2023-03-31T11:55:50.680Z,100199.41
2023-03-31T11:58:30.101Z,100201.88
2023-03-31T12:01:06.129Z,100188.81
2023-03-31T12:03:38.767Z,100189.81
2023-03-31T12:06:17.387Z,100176.75
2023-03-31T12:09:13.030Z,100170.59
2023-03-31T12:11:53.746Z,100168.16
2023-03-31T12:14:31.213Z,100178.66
2023-03-31T12:17:05.377Z,100165.16
2023-03-31T12:19:44.864Z,100169.84
2023-03-31T12:22:19.871Z,100168.81
2023-03-31T12:24:47.215Z,100147.41
2023-03-31T12:27:31.891Z,100139.34
2023-03-31T12:30:05.330Z,100135.31
2023-03-31T12:32:38.742Z,100130.09
2023-03-31T12:35:27.405Z,100121.25
2023-03-31T12:38:13.473Z,100111.53
2023-03-31T12:40:51.724Z,100105.59
2023-03-31T12:43:21.813Z,100095.28
2023-03-31T12:46:22.219Z,100092.19
2023-03-31T12:49:24.988Z,100090.34
2023-03-31T12:52:07.275Z,100090.44
2023-03-31T12:54:53.470Z,100081.38
2023-03-31T12:57:22.189Z,100079.28
2023-03-31T13:00:10.469Z,100073.16
2023-03-31T13:02:38.632Z,100073.69
2023-03-31T13:05:40.949Z,100059.72
2023-03-31T13:08:09.410Z,100044.16
2023-03-31T13:10:58.411Z,100029.69
2023-03-31T13:13:26.800Z,100026.22
2023-03-31T13:15:58.314Z,100028.66
2023-03-31T13:18:25.838Z,100026.28
2023-03-31T13:21:05.442Z,100014.38
2023-03-31T13:23:37.411Z,100004.13
2023-03-31T13:26:06.902Z,100008.06
2023-03-31T13:28:42.762Z,100011.63
2023-03-31T13:31:16.426Z,100012.19
2023-03-31T13:33:47.003Z,100006.34
2023-03-31T13:36:32.822Z,99998.69
2023-03-31T13:39:11.135Z,100000.50
2023-03-31T13:42:17.379Z,99973.16
2023-03-31T13:45:10.956Z,99965.56
2023-03-31T13:47:49.439Z,99964.59
2023-03-31T13:51:02.775Z,99959.97
2023-03-31T13:53:55.086Z,99946.72
2023-03-31T13:56:52.379Z,99954.09
2023-03-31T13:59:55.999Z,99948.44
2023-03-31T14:02:44.675Z,99946.25
2023-03-31T14:05:30.365Z,99933.13
2023-03-31T14:08:14.988Z,99943.22
2023-03-31T14:10:49.849Z,99938.97
2023-03-31T14:13:25.324Z,99926.69
2023-03-31T14:16:01.414Z,99928.03
2023-03-31T14:18:33.868Z,99911.44
2023-03-31T14:21:33.858Z,99917.47
2023-03-31T14:24:15.072Z,99897.28
2023-03-31T14:27:20.252Z,99899.53
2023-03-31T14:30:08.299Z,99897.25
2023-03-31T14:32:38.609Z,99898.00
2023-03-31T14:35:32.286Z,99888.41
2023-03-31T14:38:03.978Z,99880.66
2023-03-31T14:40:31.259Z,99875.81
2023-03-31T14:42:58.954Z,99870.13
2023-03-31T14:45:31.551Z,99854.44
2023-03-31T14:48:04.744Z,99845.31
2023-03-31T14:50:36.760Z,99841.59
2023-03-31T14:53:04.946Z,99843.25
2023-03-31T14:55:49.758Z,99840.75
2023-03-31T14:58:30.752Z,99828.94
2023-03-31T15:00:59.422Z,99829.56
2023-03-31T15:03:27.742Z,99820.56
2023-03-31T15:06:00.811Z,99826.03
2023-03-31T15:08:30.595Z,99810.97
2023-03-31T15:14:01.236Z,99782.78
2023-03-31T15:16:43.208Z,99787.03
2023-03-31T15:19:25.409Z,99798.53
2023-03-31T15:22:10.744Z,99803.28
2023-03-31T15:24:38.864Z,99786.25
2023-03-31T15:27:14.872Z,99803.19
2023-03-31T15:29:57.703Z,99808.06
2023-03-31T15:32:31.212Z,99817.38
2023-03-31T15:35:11.088Z,99811.91
2023-03-31T15:37:47.202Z,99804.91
2023-03-31T15:40:32.652Z,99802.78
2023-03-31T15:43:24.524Z,99798.28
2023-03-31T15:45:55.059Z,99788.69
2023-03-31T15:48:28.779Z,99791.88
2023-03-31T15:51:36.238Z,99782.47
2023-03-31T15:54:03.983Z,99792.72
2023-03-31T15:56:36.330Z,99785.94
2023-03-31T15:59:05.621Z,99788.31
2023-03-31T16:01:42.048Z,99794.84
2023-03-31T16:04:12.867Z,99801.13
2023-03-31T16:06:52.713Z,99793.38
2023-03-31T16:09:41.417Z,99787.25
2023-03-31T16:12:23.114Z,99781.97
2023-03-31T16:14:53.846Z,99778.91
2023-03-31T16:17:34.870Z,99775.81
2023-03-31T16:20:09.609Z,99782.56
2023-03-31T16:22:43.377Z,99789.06
2023-03-31T16:25:14.852Z,99779.06
2023-03-31T16:27:46.890Z,99779.84
2023-03-31T16:30:17.734Z,99777.44
2023-03-31T16:33:05.693Z,99778.13
2023-03-31T16:35:37.009Z,99777.34
2023-03-31T16:38:06.707Z,99763.03
2023-03-31T16:40:39.830Z,99774.34
2023-03-31T16:43:17.389Z,99765.63
2023-03-31T16:45:52.944Z,99756.31
2023-03-31T16:48:22.842Z,99760.81
2023-03-31T16:50:53.201Z,99760.91
2023-03-31T16:53:23.891Z,99769.53
2023-03-31T16:55:51.621Z,99749.19
2023-03-31T16:58:19.177Z,99733.81
2023-03-31T17:00:47.783Z,99725.28
2023-03-31T17:03:16.603Z,99712.06
2023-03-31T17:05:46.574Z,99707.19
2023-03-31T17:08:15.774Z,99692.06
2023-03-31T17:10:52.095Z,99715.84
2023-03-31T17:13:20.633Z,99696.47
2023-03-31T17:15:49.492Z,99693.78
2023-03-31T17:18:17.348Z,99708.41
2023-03-31T17:20:44.873Z,99710.72
2023-03-31T17:23:12.899Z,99721.75
2023-03-31T17:25:47.520Z,99716.06
2023-03-31T17:28:14.942Z,99714.44
2023-03-31T17:30:44.330Z,99720.91
2023-03-31T17:33:11.807Z,99703.94
2023-03-31T17:35:39.259Z,99691.84
2023-03-31T17:38:06.672Z,99705.66
2023-03-31T17:40:34.699Z,99696.06
2023-03-31T17:43:02.911Z,99705.25
2023-03-31T17:45:32.204Z,99699.38
2023-03-31T17:48:00.305Z,99709.31
2023-03-31T17:50:28.260Z,99697.66
2023-03-31T17:52:55.704Z,99702.41
2023-03-31T17:55:23.574Z,99686.44
2023-03-31T17:57:51.453Z,99682.81
2023-03-31T18:00:19.704Z,99689.81
2023-03-31T18:02:47.075Z,99683.09
2023-03-31T18:05:29.398Z,99688.09
2023-03-31T18:07:56.887Z,99714.41
2023-03-31T18:10:26.517Z,99690.50
2023-03-31T18:12:55.018Z,99699.03
2023-03-31T18:15:22.762Z,99710.03
2023-03-31T18:17:50.732Z,99716.31
2023-03-31T18:20:18.286Z,99718.47
2023-03-31T18:22:45.783Z,99711.72
2023-03-31T18:25:13.241Z,99715.25
2023-03-31T18:27:40.729Z,99721.97
2023-03-31T18:30:08.673Z,99707.03
2023-03-31T18:32:36.781Z,99709.72
2023-03-31T18:35:05.722Z,99713.72
2023-03-31T18:37:33.975Z,99719.91
2023-03-31T18:40:01.611Z,99723.63
2023-03-31T18:42:29.077Z,99721.66
2023-03-31T18:44:56.750Z,99735.28
2023-03-31T18:47:24.605Z,99708.66
2023-03-31T18:49:55.626Z,99721.78
2023-03-31T18:52:23.297Z,99716.50
2023-03-31T18:54:51.443Z,99713.94
2023-03-31T18:57:19.115Z,99700.44
2023-03-31T18:59:47.126Z,99712.56
2023-03-31T19:02:18.222Z,99701.88
2023-03-31T19:04:47.023Z,99704.59
2023-03-31T19:07:15.674Z,99700.75
2023-03-31T19:09:43.353Z,99696.28
2023-03-31T19:12:11.914Z,99706.81
2023-03-31T19:14:41.073Z,99707.81
2023-03-31T19:17:08.778Z,99699.91
2023-03-31T19:19:36.758Z,99698.84
2023-03-31T19:22:04.160Z,99703.44
2023-03-31T19:24:31.721Z,99701.25
2023-03-31T19:26:59.143Z,99692.13
2023-03-31T19:29:28.113Z,99688.91
2023-03-31T19:31:56.183Z,99695.94
2023-03-31T19:34:23.656Z,99695.34
2023-03-31T19:36:51.600Z,99692.47
2023-03-31T19:39:18.983Z,99691.31
2023-03-31T19:41:47.060Z,99688.09
2023-03-31T19:44:14.404Z,99695.16
2023-03-31T19:46:41.842Z,99684.19
2023-03-31T19:49:09.538Z,99681.19
2023-03-31T19:51:36.948Z,99680.97
2023-03-31T19:54:04.485Z,99672.50
2023-03-31T19:56:32.696Z,99691.97
2023-03-31T19:59:00.308Z,99689.91
2023-03-31T20:01:28.203Z,99669.66
2023-03-31T20:03:56.309Z,99688.09
2023-03-31T20:06:26.589Z,99672.97
2023-03-31T20:08:59.513Z,99680.97
2023-03-31T20:11:28.470Z,99663.66
2023-03-31T20:13:56.039Z,99670.81
2023-03-31T20:16:26.419Z,99666.28
2023-03-31T20:18:56.682Z,99663.91
2023-03-31T20:21:27.304Z,99671.25
2023-03-31T20:23:55.293Z,99658.72
2023-03-31T20:26:25.265Z,99657.78
2023-03-31T20:28:54.912Z,99663.03
2023-03-31T20:31:25.218Z,99677.06
2023-03-31T20:33:54.239Z,99671.81
2023-03-31T20:36:29.782Z,99661.91
2023-03-31T20:38:59.131Z,99661.66
2023-03-31T20:41:31.073Z,99646.56
2023-03-31T20:43:59.103Z,99656.38
2023-03-31T20:46:27.348Z,99642.47
2023-03-31T20:48:57.318Z,99667.25
2023-03-31T20:51:32.486Z,99650.38
2023-03-31T20:54:01.944Z,99647.28
2023-03-31T20:56:37.899Z,99652.72
2023-03-31T20:59:08.101Z,99654.34
2023-03-31T21:01:36.552Z,99669.34
2023-03-31T21:04:06.711Z,99659.59
2023-03-31T21:06:41.834Z,99664.00
2023-03-31T21:09:11.688Z,99670.19
2023-03-31T21:11:42.425Z,99674.63
2023-03-31T21:14:14.890Z,99668.56
2023-03-31T21:16:42.652Z,99654.50
2023-03-31T21:19:10.732Z,99669.66
2023-03-31T21:21:41.103Z,99659.78
2023-03-31T21:24:11.632Z,99650.22
2023-03-31T21:26:39.790Z,99645.22
2023-03-31T21:29:08.110Z,99646.84
2023-03-31T21:31:35.621Z,99633.19
2023-03-31T21:34:03.454Z,99629.78
2023-03-31T21:36:31.284Z,99633.91
2023-03-31T21:38:58.787Z,99620.31
2023-03-31T21:41:29.928Z,99608.63
2023-03-31T21:44:00.456Z,99622.53
2023-03-31T21:46:31.148Z,99619.69
2023-03-31T21:48:58.687Z,99602.13
2023-03-31T21:51:26.636Z,99591.59
2023-03-31T21:53:55.670Z,99606.97
2023-03-31T21:56:25.181Z,99594.41
2023-03-31T21:58:52.710Z,99581.34
2023-03-31T22:01:21.759Z,99572.16
2023-03-31T22:03:50.057Z,99604.59
2023-03-31T22:06:17.905Z,99598.19
2023-03-31T22:08:45.985Z,99594.41
2023-03-31T22:11:13.912Z,99593.13
2023-03-31T22:13:41.442Z,99581.19
2023-03-31T22:16:21.133Z,99567.63
2023-03-31T22:18:50.425Z,99580.25
2023-03-31T22:21:21.701Z,99583.56
2023-03-31T22:23:51.915Z,99580.47
2023-03-31T22:26:19.593Z,99582.72
2023-03-31T22:28:47.476Z,99599.16
2023-03-31T22:31:15.391Z,99585.38
2023-03-31T22:33:42.818Z,99599.31
2023-03-31T22:36:10.721Z,99590.91
2023-03-31T22:38:38.654Z,99602.78
2023-03-31T22:41:06.856Z,99600.69
2023-03-31T22:43:34.312Z,99603.63
2023-03-31T22:46:06.695Z,99598.88
2023-03-31T22:48:34.639Z,99595.44
2023-03-31T22:51:04.700Z,99595.69
2023-03-31T22:53:33.162Z,99602.47
2023-03-31T22:56:10.655Z,99592.66
2023-03-31T22:58:38.353Z,99613.22
2023-03-31T23:01:07.067Z,99604.19
2023-03-31T23:03:34.755Z,99604.72
2023-03-31T23:06:05.182Z,99585.84
2023-03-31T23:08:33.682Z,99597.81
2023-03-31T23:11:01.879Z,99587.00
2023-03-31T23:13:29.983Z,99584.28
2023-03-31T23:16:12.682Z,99575.19
2023-03-31T23:18:44.462Z,99591.25
2023-03-31T23:21:19.426Z,99595.16
2023-03-31T23:23:47.050Z,99575.91
2023-03-31T23:26:15.870Z,99574.34
2023-03-31T23:28:43.876Z,99576.00
2023-03-31T23:31:11.303Z,99589.31
2023-03-31T23:33:38.736Z,99567.41
2023-03-31T23:36:07.616Z,99562.91
2023-03-31T23:38:35.756Z,99560.91
2023-03-31T23:41:03.713Z,99557.97
2023-03-31T23:43:31.154Z,99563.16
2023-03-31T23:45:58.705Z,99558.97
2023-03-31T23:48:26.453Z,99552.56
2023-03-31T23:50:53.807Z,99568.69
2023-03-31T23:53:21.462Z,99557.91
2023-03-31T23:55:56.523Z,99550.78
2023-03-31T23:58:25.428Z,99537.16
